GB-0109 weather

CLOSED RAF Banff
Aberdeenshire, Scotland, United Kingdom

Public forecast

Using degrees Celsius for public forecast. Weather courtesy of forecast.io.

Closest aviation weather report (METAR) to RAF Banff

Closest report is RAF Lossiemouth, 22.5 nm (41.7 km) W. Retrieved 2020/06/05 21:50 UTC (18 minutes ago):

EGQS 052150Z 02015KT 9000 -RA SCT010 BKN016 BKN040 10/09 Q0989 RMK GRN

Closest aviation forecast (TAF) to RAF Banff

Closest forecast is RAF Lossiemouth, 22.5 nm (41.7 km) W. Retrieved 2020/06/05 21:37 UTC (31 minutes ago):

TAF EGQS 051928Z 0521/0615 36018G28KT 9999 FEW010 BKN025 TEMPO 0521/0524 6000 RA SCT010 BKN018 PROB30 TEMPO 0521/0523 4000 +RA RADZ SCT005 BKN008 PROB30 TEMPO 0600/0608 -SHRA SCT012 BKN020 BECMG 0602/0605 02012KT TEMPO 0613/0615 6000 RA SCT010 BKN020